Time;durP1;ratioP1;P1;durP2;ratioP2;P2;SDS_P1;SDS_P2;PMS_P1;PMS_P2;Temp;Humidity;BMP_temperature;BMP_pressure;BME280_temperature;BME280_humidity;BME280_pressure;Samples;Min_cycle;Max_cycle;Signal;HPM_P1;HPM_P2
2023/05/18 00:00:22;;;;;;;6.68;2.00;;;11.00;99.90;;;;;;4940469;28;20042;-80
2023/05/18 00:02:48;;;;;;;11.57;2.63;;;11.10;99.90;;;;;;4971952;28;20130;-80
2023/05/18 00:05:16;;;;;;;7.90;2.35;;;11.10;99.90;;;;;;4987863;28;20404;-79
2023/05/18 00:07:42;;;;;;;10.75;2.20;;;11.10;99.90;;;;;;4967056;28;20041;-76
2023/05/18 00:10:09;;;;;;;7.38;3.03;;;11.10;99.90;;;;;;4990428;28;20124;-78
2023/05/18 00:12:35;;;;;;;9.57;2.45;;;11.10;99.90;;;;;;4991318;28;20057;-77
2023/05/18 00:15:01;;;;;;;4.80;2.10;;;11.00;99.90;;;;;;5059645;28;20072;-78
2023/05/18 00:17:26;;;;;;;5.97;2.33;;;11.00;99.90;;;;;;4975375;28;20448;-80
2023/05/18 00:19:52;;;;;;;15.35;2.60;;;11.10;99.90;;;;;;4975303;28;20050;-81
2023/05/18 00:22:18;;;;;;;6.40;2.20;;;11.00;99.90;;;;;;5059515;28;20038;-78
2023/05/18 00:24:47;;;;;;;8.23;2.60;;;10.90;99.90;;;;;;4984471;28;20046;-81
2023/05/18 00:27:14;;;;;;;7.07;2.33;;;11.00;99.90;;;;;;4938995;28;20510;-79
2023/05/18 00:29:40;;;;;;;7.72;2.78;;;10.90;99.90;;;;;;4940069;28;20042;-80
2023/05/18 00:32:05;;;;;;;8.10;3.08;;;10.90;99.90;;;;;;4939951;28;20054;-78
2023/05/18 00:34:31;;;;;;;4.63;2.28;;;10.90;99.90;;;;;;4972077;28;20046;-78
2023/05/18 00:36:57;;;;;;;6.57;2.38;;;10.90;99.90;;;;;;4939723;28;20042;-82
2023/05/18 00:39:22;;;;;;;6.13;2.40;;;10.90;99.90;;;;;;4940076;28;20046;-78
2023/05/18 00:41:57;;;;;;;5.60;2.00;;;10.90;99.90;;;;;;4971958;28;20085;-80
2023/05/18 00:44:23;;;;;;;4.45;2.00;;;10.90;99.90;;;;;;4973294;28;20037;-80
2023/05/18 00:46:49;;;;;;;4.47;1.88;;;10.90;99.90;;;;;;4959118;28;20042;-77
2023/05/18 00:49:15;;;;;;;6.32;1.92;;;10.90;99.90;;;;;;5058877;28;20038;-78
2023/05/18 00:51:41;;;;;;;8.20;2.53;;;10.90;99.90;;;;;;4974573;28;20503;-80
2023/05/18 00:54:07;;;;;;;4.55;2.03;;;10.90;99.90;;;;;;4958522;28;20038;-78
2023/05/18 00:56:33;;;;;;;7.68;2.13;;;10.90;99.90;;;;;;4990805;28;20092;-79
2023/05/18 00:59:02;;;;;;;4.60;2.15;;;10.90;99.90;;;;;;4990243;28;20056;-78
2023/05/18 01:01:35;;;;;;;5.68;2.53;;;10.90;99.90;;;;;;5002903;28;20127;-77
2023/05/18 01:04:03;;;;;;;7.35;1.95;;;10.80;99.90;;;;;;4974453;28;20546;-79
2023/05/18 01:06:34;;;;;;;8.88;2.13;;;10.90;99.90;;;;;;4974752;28;20394;-77
2023/05/18 01:09:02;;;;;;;11.55;2.40;;;10.80;99.90;;;;;;4990367;28;20058;-77
2023/05/18 01:11:47;;;;;;;5.65;2.40;;;10.80;99.90;;;;;;5007211;28;20081;-78
2023/05/18 01:14:17;;;;;;;9.63;2.90;;;10.90;99.90;;;;;;4973908;28;20034;-79
2023/05/18 01:16:53;;;;;;;6.00;2.45;;;10.90;99.90;;;;;;4984226;28;20042;-81
2023/05/18 01:19:24;;;;;;;7.72;2.63;;;10.90;99.90;;;;;;5002108;28;20038;-80
2023/05/18 01:22:22;;;;;;;6.25;2.33;;;10.90;99.90;;;;;;5002999;28;20046;-81
2023/05/18 01:24:53;;;;;;;2.72;1.70;;;11.00;99.90;;;;;;4955301;28;20653;-82
2023/05/18 01:27:24;;;;;;;5.13;2.10;;;11.00;99.90;;;;;;4970699;28;20089;-82
2023/05/18 01:29:50;;;;;;;3.88;2.22;;;11.00;99.90;;;;;;4987315;28;20046;-81
2023/05/18 01:32:20;;;;;;;3.85;1.80;;;11.00;99.90;;;;;;4970776;28;20043;-78
2023/05/18 01:34:47;;;;;;;5.10;2.00;;;11.10;99.90;;;;;;5003535;28;20077;-82
2023/05/18 01:37:13;;;;;;;6.35;2.22;;;11.10;99.90;;;;;;4974535;28;20057;-79
2023/05/18 01:39:39;;;;;;;5.30;2.08;;;11.10;99.90;;;;;;5006010;28;20474;-78
2023/05/18 01:42:18;;;;;;;6.65;2.15;;;11.10;99.90;;;;;;4974270;28;20418;-78
2023/05/18 01:44:56;;;;;;;6.53;2.10;;;11.10;99.90;;;;;;4990127;28;20053;-79
2023/05/18 01:47:23;;;;;;;6.82;2.45;;;11.00;99.90;;;;;;4988478;28;20451;-78
2023/05/18 01:50:10;;;;;;;8.38;1.92;;;11.10;99.90;;;;;;4972838;28;20045;-77
2023/05/18 01:53:09;;;;;;;6.30;1.95;;;11.10;99.90;;;;;;4990351;28;20080;-82
2023/05/18 01:55:37;;;;;;;5.20;2.05;;;11.10;99.90;;;;;;4991732;28;20072;-83
2023/05/18 01:58:05;;;;;;;5.70;1.73;;;11.20;99.90;;;;;;4989870;28;20054;-77
2023/05/18 02:00:32;;;;;;;5.68;2.25;;;11.20;99.90;;;;;;5005975;28;20041;-81
2023/05/18 02:02:57;;;;;;;5.65;2.35;;;11.20;99.90;;;;;;5006491;28;20382;-78
2023/05/18 02:05:23;;;;;;;12.90;2.22;;;11.30;99.90;;;;;;4986030;28;20049;-78
2023/05/18 02:07:49;;;;;;;3.80;2.20;;;11.30;99.90;;;;;;4989602;28;20608;-80
2023/05/18 02:10:14;;;;;;;7.97;2.70;;;11.30;99.90;;;;;;4989457;28;20042;-78
2023/05/18 02:12:40;;;;;;;5.53;2.25;;;11.40;99.90;;;;;;4989967;28;20569;-80
2023/05/18 02:15:07;;;;;;;8.68;2.45;;;11.40;99.90;;;;;;5005808;28;20488;-79
2023/05/18 02:17:36;;;;;;;5.85;2.60;;;11.40;99.90;;;;;;4973853;28;20180;-83
2023/05/18 02:20:06;;;;;;;6.95;2.75;;;11.40;99.90;;;;;;5006443;28;20110;-83
2023/05/18 02:22:31;;;;;;;6.55;2.97;;;11.30;99.90;;;;;;4994030;28;20049;-78
2023/05/18 02:24:57;;;;;;;7.15;2.78;;;11.30;99.90;;;;;;4938074;28;20046;-81
2023/05/18 02:27:23;;;;;;;8.73;2.72;;;11.30;99.90;;;;;;4970237;28;20042;-80
2023/05/18 02:29:49;;;;;;;9.07;2.88;;;11.30;99.90;;;;;;4938127;28;20401;-82
2023/05/18 02:32:14;;;;;;;6.07;2.90;;;11.30;99.90;;;;;;4954087;28;20038;-83
2023/05/18 02:34:41;;;;;;;7.75;2.90;;;11.40;99.90;;;;;;4938206;28;20038;-79
2023/05/18 02:37:07;;;;;;;6.32;2.80;;;11.40;99.90;;;;;;4954093;28;20043;-80
2023/05/18 02:39:32;;;;;;;7.28;2.55;;;11.40;99.90;;;;;;4957148;28;20038;-79
2023/05/18 02:41:58;;;;;;;7.93;2.60;;;11.40;99.90;;;;;;5005665;28;20132;-81
2023/05/18 02:44:24;;;;;;;6.68;3.00;;;11.40;99.90;;;;;;4989491;28;20060;-79
2023/05/18 02:46:50;;;;;;;10.02;2.70;;;11.40;99.90;;;;;;4989513;28;20490;-81
2023/05/18 02:49:16;;;;;;;12.15;3.08;;;11.30;99.90;;;;;;4989014;28;20129;-78
2023/05/18 02:51:41;;;;;;;7.82;2.30;;;11.40;99.90;;;;;;4989416;28;20073;-83
2023/05/18 02:54:07;;;;;;;7.57;2.65;;;11.40;99.90;;;;;;4989709;28;20045;-78
2023/05/18 02:56:33;;;;;;;7.18;2.75;;;11.40;99.90;;;;;;4985948;28;20091;-80
2023/05/18 02:58:59;;;;;;;6.68;2.70;;;11.40;99.90;;;;;;5017039;28;20046;-82
2023/05/18 03:01:26;;;;;;;6.18;2.45;;;11.40;99.90;;;;;;5057960;28;20071;-80
2023/05/18 03:03:52;;;;;;;7.40;2.45;;;11.40;99.90;;;;;;5093502;28;20061;-81
2023/05/18 03:06:25;;;;;;;5.93;2.40;;;11.40;99.90;;;;;;5078202;28;20043;-79
2023/05/18 03:08:54;;;;;;;3.75;2.47;;;11.40;99.90;;;;;;5077666;28;20459;-81
2023/05/18 03:11:20;;;;;;;10.50;2.00;;;11.40;99.90;;;;;;5074831;28;20039;-81
2023/05/18 03:13:46;;;;;;;3.78;2.13;;;11.30;99.90;;;;;;5054814;28;20129;-79
2023/05/18 03:16:12;;;;;;;6.75;2.25;;;11.40;99.90;;;;;;4955517;28;20054;-80
2023/05/18 03:18:38;;;;;;;6.43;2.63;;;11.40;99.90;;;;;;4986436;28;20051;-79
2023/05/18 03:21:04;;;;;;;5.93;2.60;;;11.40;99.90;;;;;;4954143;28;20049;-81
2023/05/18 03:23:30;;;;;;;10.65;2.83;;;11.40;99.90;;;;;;4953201;28;20081;-80
2023/05/18 03:25:56;;;;;;;6.07;2.28;;;11.40;99.90;;;;;;4953905;28;20050;-80
2023/05/18 03:28:21;;;;;;;8.05;2.25;;;11.40;99.90;;;;;;4969232;28;20517;-79
2023/05/18 03:30:47;;;;;;;5.00;2.00;;;11.40;99.90;;;;;;4953324;28;20038;-78
2023/05/18 03:33:13;;;;;;;5.25;2.22;;;11.40;99.90;;;;;;4987566;28;20034;-81
2023/05/18 03:35:39;;;;;;;5.13;2.22;;;11.40;99.90;;;;;;4988889;28;20042;-78
2023/05/18 03:38:06;;;;;;;5.40;1.98;;;11.40;99.90;;;;;;5005192;28;20104;-81
2023/05/18 03:40:32;;;;;;;6.32;2.25;;;11.40;99.90;;;;;;4987862;28;20095;-78
2023/05/18 03:42:58;;;;;;;6.78;2.40;;;11.40;99.90;;;;;;5007646;28;20428;-80
2023/05/18 03:45:24;;;;;;;6.50;2.05;;;11.40;99.90;;;;;;4992201;28;20107;-80
2023/05/18 03:47:50;;;;;;;5.32;2.28;;;11.40;99.90;;;;;;4991855;28;20386;-80
2023/05/18 03:50:15;;;;;;;7.90;2.33;;;11.40;99.90;;;;;;4941344;28;20041;-80
2023/05/18 03:52:43;;;;;;;5.97;2.28;;;11.40;99.90;;;;;;4991533;28;20045;-79
2023/05/18 03:55:10;;;;;;;3.63;1.92;;;11.40;99.90;;;;;;4991636;28;20045;-78
2023/05/18 03:57:39;;;;;;;6.13;2.10;;;11.50;99.90;;;;;;4975023;28;20049;-78
2023/05/18 04:00:11;;;;;;;8.10;1.98;;;11.50;99.90;;;;;;4991309;28;20045;-80
2023/05/18 04:02:37;;;;;;;6.03;1.92;;;11.50;99.90;;;;;;5007454;28;20106;-83
2023/05/18 04:05:04;;;;;;;6.03;2.22;;;11.50;99.90;;;;;;4975458;28;20427;-80
2023/05/18 04:07:29;;;;;;;6.93;2.10;;;11.50;99.90;;;;;;4969339;28;20526;-79
2023/05/18 04:09:56;;;;;;;3.97;2.00;;;11.50;99.90;;;;;;4942486;28;20045;-80
2023/05/18 04:12:22;;;;;;;3.67;2.10;;;11.50;99.90;;;;;;4942819;28;20210;-79
2023/05/18 04:14:52;;;;;;;4.95;2.13;;;11.60;99.90;;;;;;5007836;28;20037;-78
2023/05/18 04:17:21;;;;;;;7.88;2.53;;;11.60;99.90;;;;;;5007415;28;20045;-82
2023/05/18 04:19:50;;;;;;;8.15;2.25;;;11.60;99.90;;;;;;5007694;28;20535;-80
2023/05/18 04:22:17;;;;;;;6.00;2.00;;;11.60;99.90;;;;;;4990896;28;20099;-80
2023/05/18 04:24:46;;;;;;;7.43;2.88;;;11.60;99.90;;;;;;5003279;28;20110;-79
2023/05/18 04:27:11;;;;;;;7.47;2.08;;;11.60;99.90;;;;;;4990925;28;20046;-79
2023/05/18 04:29:38;;;;;;;3.10;2.05;;;11.60;99.90;;;;;;4974488;28;20049;-82
2023/05/18 04:32:06;;;;;;;5.53;2.00;;;11.60;99.90;;;;;;4991157;28;20173;-80
2023/05/18 04:34:34;;;;;;;9.52;2.17;;;11.70;99.90;;;;;;4990698;28;20085;-79
2023/05/18 04:37:01;;;;;;;5.20;2.22;;;11.70;99.90;;;;;;5007319;28;20054;-80
2023/05/18 04:39:28;;;;;;;7.07;2.25;;;11.70;99.90;;;;;;4990559;28;20081;-80
2023/05/18 04:41:59;;;;;;;4.40;1.77;;;11.70;99.90;;;;;;4988284;28;20042;-79
2023/05/18 04:44:28;;;;;;;4.05;1.88;;;11.70;99.90;;;;;;5006563;28;20081;-80
2023/05/18 04:46:55;;;;;;;4.60;1.88;;;11.70;99.90;;;;;;4991173;28;20097;-78
2023/05/18 04:49:21;;;;;;;5.68;2.13;;;11.80;99.90;;;;;;4974366;28;20042;-81
2023/05/18 04:51:54;;;;;;;5.78;2.08;;;11.70;99.90;;;;;;4990824;28;20087;-78
2023/05/18 04:54:31;;;;;;;4.65;1.98;;;11.80;99.90;;;;;;4990518;28;20060;-78
2023/05/18 04:56:57;;;;;;;9.57;2.17;;;11.80;99.90;;;;;;4990530;28;20115;-78
2023/05/18 04:59:25;;;;;;;6.55;1.92;;;11.80;99.90;;;;;;5000644;28;20080;-79
2023/05/18 05:01:54;;;;;;;5.40;2.15;;;11.80;99.90;;;;;;4990482;28;20049;-78
2023/05/18 05:04:21;;;;;;;5.57;2.03;;;11.80;99.90;;;;;;5006045;28;20099;-80
2023/05/18 05:06:49;;;;;;;4.50;2.42;;;11.80;99.90;;;;;;5006629;28;20098;-78
2023/05/18 05:09:15;;;;;;;8.35;2.25;;;11.80;99.90;;;;;;4974585;28;20125;-78
2023/05/18 05:11:41;;;;;;;10.27;2.63;;;11.80;99.90;;;;;;5006253;28;20274;-80
2023/05/18 05:14:07;;;;;;;5.05;2.00;;;11.80;99.90;;;;;;4990539;28;20046;-78
2023/05/18 05:16:33;;;;;;;5.97;2.03;;;11.80;99.90;;;;;;5056262;28;20073;-79
2023/05/18 05:18:59;;;;;;;4.38;2.05;;;11.80;99.90;;;;;;5006746;28;20050;-78
2023/05/18 05:21:25;;;;;;;7.05;2.28;;;11.80;99.90;;;;;;4990182;28;20045;-80
2023/05/18 05:23:51;;;;;;;8.50;2.28;;;11.80;99.90;;;;;;5006510;28;20128;-78
2023/05/18 05:26:17;;;;;;;6.53;2.08;;;11.80;99.90;;;;;;4990235;28;20128;-75
2023/05/18 05:28:43;;;;;;;6.28;2.00;;;11.90;99.90;;;;;;4974198;28;20057;-79
2023/05/18 05:31:09;;;;;;;7.82;2.17;;;11.90;99.90;;;;;;4987148;28;20042;-80
2023/05/18 05:33:34;;;;;;;6.15;2.20;;;11.80;99.90;;;;;;4954938;28;20402;-82
2023/05/18 05:36:00;;;;;;;3.40;2.05;;;11.90;99.90;;;;;;4954246;28;20053;-80
2023/05/18 05:38:26;;;;;;;8.40;2.40;;;11.90;99.90;;;;;;5054129;28;20053;-79
2023/05/18 05:40:52;;;;;;;11.05;2.78;;;11.90;99.90;;;;;;5054895;28;20038;-79
2023/05/18 05:43:17;;;;;;;4.63;2.00;;;12.00;99.90;;;;;;5038027;28;20054;-78
2023/05/18 05:45:43;;;;;;;8.80;2.05;;;12.00;99.90;;;;;;4954304;28;20085;-77
2023/05/18 05:48:09;;;;;;;8.45;2.60;;;12.00;99.90;;;;;;4958681;28;20057;-81
2023/05/18 05:50:35;;;;;;;4.10;1.60;;;12.10;99.90;;;;;;5005392;28;20050;-77
2023/05/18 05:53:03;;;;;;;7.35;2.55;;;12.10;99.90;;;;;;4973742;28;20050;-83
2023/05/18 05:55:29;;;;;;;6.43;2.03;;;12.10;99.90;;;;;;5005607;28;20084;-82
2023/05/18 05:57:55;;;;;;;6.60;2.70;;;12.20;99.90;;;;;;4973344;28;20085;-80
2023/05/18 06:00:22;;;;;;;8.45;2.17;;;12.40;99.90;;;;;;4989109;28;20049;-78
2023/05/18 06:02:54;;;;;;;9.90;2.20;;;12.50;99.90;;;;;;4989766;28;20038;-80
2023/05/18 06:05:20;;;;;;;4.57;2.17;;;12.60;99.90;;;;;;4968015;28;20094;-83
2023/05/18 06:07:46;;;;;;;8.77;1.95;;;12.50;99.90;;;;;;4972443;28;20046;-78
2023/05/18 06:10:12;;;;;;;3.53;1.77;;;12.70;99.90;;;;;;5004249;28;20132;-79
2023/05/18 06:12:38;;;;;;;7.97;2.35;;;12.80;99.90;;;;;;4988762;28;20483;-82
2023/05/18 06:15:04;;;;;;;6.75;2.10;;;12.90;99.90;;;;;;4987378;28;20087;-79
2023/05/18 06:17:29;;;;;;;4.43;1.90;;;13.00;99.90;;;;;;4985164;28;20037;-79
2023/05/18 06:19:55;;;;;;;8.80;2.17;;;13.00;99.90;;;;;;4957158;28;20367;-77
2023/05/18 06:22:35;;;;;;;3.88;1.80;;;13.10;99.90;;;;;;4965465;28;20095;-82
2023/05/18 06:25:01;;;;;;;6.75;2.38;;;13.20;99.90;;;;;;4988172;28;20054;-78
2023/05/18 06:27:31;;;;;;;6.10;2.00;;;13.20;99.90;;;;;;4955564;28;20052;-81
2023/05/18 06:30:00;;;;;;;4.50;1.90;;;13.20;99.90;;;;;;4957507;28;20054;-80
2023/05/18 06:32:25;;;;;;;8.75;1.90;;;13.20;99.90;;;;;;4988757;28;20042;-77
2023/05/18 06:34:51;;;;;;;5.43;1.80;;;13.30;99.90;;;;;;4973019;28;20048;-81
2023/05/18 06:37:18;;;;;;;5.28;1.77;;;13.30;99.90;;;;;;4968420;28;20081;-82
2023/05/18 06:39:43;;;;;;;4.10;1.92;;;13.40;99.90;;;;;;4961076;28;20089;-78
2023/05/18 06:42:10;;;;;;;5.90;1.90;;;13.50;99.90;;;;;;4988646;28;20085;-81
2023/05/18 06:44:35;;;;;;;7.75;2.28;;;13.60;99.90;;;;;;4988647;28;20054;-82
2023/05/18 06:47:01;;;;;;;3.95;1.73;;;13.60;99.90;;;;;;4939656;28;20442;-77
2023/05/18 06:49:27;;;;;;;11.50;2.08;;;13.60;99.90;;;;;;4955418;28;20050;-80
2023/05/18 06:51:52;;;;;;;4.95;1.65;;;13.60;99.90;;;;;;4952919;28;20450;-77
2023/05/18 06:54:18;;;;;;;5.82;1.63;;;13.70;99.90;;;;;;4968860;28;20391;-79
2023/05/18 06:56:45;;;;;;;3.70;1.58;;;13.70;99.90;;;;;;4952202;28;20395;-77
2023/05/18 06:59:10;;;;;;;7.95;2.13;;;13.70;99.90;;;;;;4986934;28;20050;-77
2023/05/18 07:01:36;;;;;;;3.38;1.60;;;13.80;99.90;;;;;;4970570;28;20049;-81
2023/05/18 07:04:02;;;;;;;4.65;1.80;;;13.60;99.90;;;;;;4969929;28;20050;-77
2023/05/18 07:06:28;;;;;;;5.85;1.98;;;13.80;99.90;;;;;;4998362;28;20134;-78
2023/05/18 07:08:55;;;;;;;5.05;1.98;;;14.10;99.90;;;;;;4970954;28;20098;-78
2023/05/18 07:11:20;;;;;;;5.65;2.15;;;14.00;99.90;;;;;;4956312;28;20030;-78
2023/05/18 07:13:46;;;;;;;4.80;1.88;;;14.00;99.90;;;;;;4961622;28;20141;-80
2023/05/18 07:16:12;;;;;;;4.72;1.90;;;14.00;99.90;;;;;;4957982;28;20313;-78
2023/05/18 07:18:40;;;;;;;4.95;1.75;;;14.10;99.90;;;;;;4971782;28;20133;-79
2023/05/18 07:21:09;;;;;;;4.20;1.73;;;14.10;99.90;;;;;;5006844;28;20046;-81
2023/05/18 07:23:35;;;;;;;5.00;2.30;;;13.90;99.90;;;;;;4991343;28;20169;-78
2023/05/18 07:26:00;;;;;;;5.95;2.20;;;13.50;99.90;;;;;;5001959;28;20042;-78
2023/05/18 07:28:26;;;;;;;8.00;2.42;;;13.60;99.90;;;;;;4988925;28;20054;-78
2023/05/18 07:30:52;;;;;;;5.35;2.00;;;13.90;99.90;;;;;;4994978;28;20069;-79
2023/05/18 07:33:17;;;;;;;4.95;2.05;;;14.10;99.90;;;;;;4991155;28;20429;-79
2023/05/18 07:35:43;;;;;;;6.20;1.75;;;14.00;99.90;;;;;;5008143;28;20038;-78
2023/05/18 07:38:10;;;;;;;7.50;1.92;;;13.90;99.90;;;;;;4992016;28;20468;-78
2023/05/18 07:40:36;;;;;;;5.50;2.00;;;13.90;99.90;;;;;;4989073;28;20492;-78
2023/05/18 07:43:01;;;;;;;3.17;1.70;;;14.00;99.90;;;;;;4965952;28;20112;-76
2023/05/18 07:45:27;;;;;;;5.72;1.95;;;14.20;99.90;;;;;;4966122;28;20078;-75
2023/05/18 07:47:53;;;;;;;7.43;2.30;;;14.00;99.90;;;;;;4981565;28;20077;-76
2023/05/18 07:50:19;;;;;;;4.97;1.90;;;13.70;99.90;;;;;;4970312;28;20057;-78
2023/05/18 07:52:45;;;;;;;7.03;2.40;;;13.90;99.90;;;;;;4969238;28;20038;-77
2023/05/18 07:55:11;;;;;;;11.65;2.20;;;14.00;99.90;;;;;;5058759;28;20038;-79
2023/05/18 07:57:36;;;;;;;2.58;1.70;;;14.10;99.90;;;;;;4991083;28;20049;-80
2023/05/18 08:00:05;;;;;;;4.18;1.77;;;14.30;99.90;;;;;;5015202;28;20125;-78
2023/05/18 08:02:31;;;;;;;3.90;1.70;;;14.20;99.90;;;;;;4996754;28;20435;-77
2023/05/18 08:04:56;;;;;;;5.65;2.33;;;14.30;99.90;;;;;;4988004;28;20448;-80
2023/05/18 08:07:25;;;;;;;6.22;2.03;;;14.40;99.90;;;;;;4965276;28;20051;-74
2023/05/18 08:09:53;;;;;;;6.97;2.00;;;14.60;99.90;;;;;;5075432;28;20125;-78
2023/05/18 08:12:23;;;;;;;7.13;2.42;;;14.70;99.90;;;;;;4991746;28;20045;-81
2023/05/18 08:14:49;;;;;;;3.17;1.80;;;14.80;99.90;;;;;;4972414;28;20076;-81
2023/05/18 08:17:14;;;;;;;6.22;2.13;;;14.90;99.90;;;;;;4969080;28;20070;-81
2023/05/18 08:19:40;;;;;;;6.93;1.88;;;14.80;99.90;;;;;;4995212;28;20042;-77
2023/05/18 08:22:06;;;;;;;5.28;2.20;;;14.90;99.90;;;;;;5041640;28;20098;-76
2023/05/18 08:24:32;;;;;;;7.75;2.50;;;14.80;78.60;;;;;;4971070;28;20042;-76
2023/05/18 08:26:58;;;;;;;4.07;1.65;;;14.70;99.90;;;;;;4999658;28;20102;-79
2023/05/18 08:29:24;;;;;;;4.63;2.10;;;14.80;81.70;;;;;;4990478;28;20050;-82
2023/05/18 08:31:50;;;;;;;4.97;1.70;;;14.90;92.30;;;;;;5004343;28;20034;-85
2023/05/18 08:34:16;;;;;;;4.22;2.10;;;15.10;99.90;;;;;;5059125;28;20038;-78
2023/05/18 08:36:44;;;;;;;5.72;2.03;;;15.10;83.90;;;;;;4989412;28;20053;-77
2023/05/18 08:39:10;;;;;;;3.30;1.75;;;15.20;99.90;;;;;;4977494;28;20034;-79
2023/05/18 08:41:54;;;;;;;5.43;1.70;;;15.20;90.20;;;;;;4973766;28;20047;-79
2023/05/18 08:44:24;;;;;;;5.63;1.90;;;15.30;99.60;;;;;;4997266;28;20077;-79
2023/05/18 08:46:50;;;;;;;3.55;1.85;;;15.80;99.90;;;;;;5004517;28;20124;-78
2023/05/18 08:49:19;;;;;;;4.60;1.98;;;15.70;95.30;;;;;;4986648;28;20038;-81
2023/05/18 08:51:47;;;;;;;4.68;1.67;;;16.20;59.20;;;;;;4989156;28;20045;-79
2023/05/18 08:54:20;;;;;;;4.32;1.52;;;16.20;81.40;;;;;;4989570;28;20046;-80
2023/05/18 08:56:46;;;;;;;8.95;1.95;;;16.10;21.80;;;;;;4989969;28;20171;-79
2023/05/18 08:59:20;;;;;;;4.38;1.65;;;15.50;56.10;;;;;;5003772;28;20053;-78
2023/05/18 09:01:46;;;;;;;6.95;1.80;;;15.70;67.60;;;;;;4957336;28;20053;-78
2023/05/18 09:04:12;;;;;;;2.85;1.35;;;16.00;35.20;;;;;;4986138;28;20038;-81
2023/05/18 09:06:38;;;;;;;6.50;1.70;;;16.00;25.20;;;;;;4951495;28;20065;-80
2023/05/18 09:09:05;;;;;;;4.30;1.63;;;16.30;28.50;;;;;;4954687;28;20042;-78
2023/05/18 09:11:32;;;;;;;4.50;1.67;;;16.70;32.80;;;;;;4965211;28;20053;-79
2023/05/18 09:13:59;;;;;;;4.05;1.85;;;16.80;25.90;;;;;;4995799;28;20073;-79
2023/05/18 09:16:25;;;;;;;5.45;2.25;;;16.80;20.30;;;;;;5053773;28;20038;-78
2023/05/18 09:18:51;;;;;;;2.17;1.27;;;16.50;4.70;;;;;;4970432;28;20387;-82
2023/05/18 09:21:20;;;;;;;4.97;1.60;;;16.30;1.00;;;;;;4986201;28;20463;-78
2023/05/18 09:23:46;;;;;;;2.88;1.50;;;16.90;5.40;;;;;;4971142;28;20116;-77
2023/05/18 09:26:12;;;;;;;3.17;1.48;;;16.90;1.00;;;;;;4972110;28;20054;-81
2023/05/18 09:28:40;;;;;;;3.05;1.55;;;16.90;1.00;;;;;;4953600;28;20384;-80
2023/05/18 09:31:08;;;;;;;5.40;1.65;;;17.00;1.00;;;;;;4983225;28;20045;-78
2023/05/18 09:33:36;;;;;;;7.10;1.63;;;17.30;1.00;;;;;;4957322;28;20049;-80
2023/05/18 09:36:06;;;;;;;4.40;2.05;;;16.60;1.00;;;;;;4973247;28;20509;-81
2023/05/18 09:38:47;;;;;;;5.07;2.15;;;16.70;1.00;;;;;;4988957;28;20133;-79
2023/05/18 09:41:17;;;;;;;4.47;1.80;;;17.60;1.00;;;;;;4970276;28;20037;-80
2023/05/18 09:43:44;;;;;;;2.88;1.70;;;17.90;1.00;;;;;;4986619;28;20037;-78
2023/05/18 09:46:11;;;;;;;3.80;1.58;;;17.90;1.00;;;;;;4983739;28;20050;-79
2023/05/18 09:48:49;;;;;;;3.70;1.60;;;18.50;1.00;;;;;;4969830;28;20082;-78
2023/05/18 09:51:17;;;;;;;7.07;1.67;;;18.80;1.00;;;;;;4989183;28;20052;-78
2023/05/18 09:54:04;;;;;;;4.18;1.95;;;18.70;1.00;;;;;;4989345;28;20378;-78
2023/05/18 09:56:33;;;;;;;3.10;1.73;;;18.20;1.00;;;;;;4972730;28;20084;-76
2023/05/18 09:59:07;;;;;;;5.72;1.83;;;18.20;1.00;;;;;;4970412;28;20563;-76
2023/05/18 10:01:33;;;;;;;5.45;2.03;;;18.50;1.00;;;;;;4964929;28;20468;-78
2023/05/18 10:04:05;;;;;;;5.50;1.73;;;18.90;99.90;;;;;;5005125;28;20053;-79
2023/05/18 10:06:30;;;;;;;5.68;1.55;;;18.50;99.90;;;;;;4989689;28;20050;-77
2023/05/18 10:09:00;;;;;;;4.93;1.70;;;18.10;99.90;;;;;;5057007;28;20048;-78
2023/05/18 10:11:30;;;;;;;3.85;1.75;;;18.80;99.90;;;;;;4988353;28;20041;-78
2023/05/18 10:13:57;;;;;;;5.47;1.67;;;18.40;99.90;;;;;;4972257;28;20048;-78
2023/05/18 10:16:24;;;;;;;3.90;1.67;;;18.20;99.90;;;;;;4989113;28;20132;-77
2023/05/18 10:18:53;;;;;;;4.95;2.25;;;18.00;99.90;;;;;;4971182;28;20041;-79
2023/05/18 10:21:20;;;;;;;4.97;1.83;;;18.50;99.90;;;;;;4986518;28;20050;-78
2023/05/18 10:23:49;;;;;;;4.05;1.67;;;18.90;99.90;;;;;;4971125;28;20402;-76
2023/05/18 10:26:20;;;;;;;4.45;1.85;;;17.90;99.90;;;;;;4986226;28;20436;-76
2023/05/18 10:28:49;;;;;;;6.20;2.20;;;18.50;99.90;;;;;;4986463;28;20430;-77
2023/05/18 10:31:15;;;;;;;3.95;1.77;;;18.30;99.90;;;;;;4988380;28;20084;-78
2023/05/18 10:33:43;;;;;;;7.60;2.45;;;17.70;99.90;;;;;;4987396;28;20034;-80
2023/05/18 10:36:09;;;;;;;2.22;1.63;;;18.40;99.90;;;;;;4985653;28;20068;-78
2023/05/18 10:38:41;;;;;;;3.95;1.67;;;17.80;99.90;;;;;;4978185;28;20046;-78
2023/05/18 10:41:08;;;;;;;3.13;1.80;;;17.80;99.90;;;;;;4952663;28;20039;-77
2023/05/18 10:43:35;;;;;;;4.85;1.60;;;17.80;99.90;;;;;;4986515;28;20133;-77
2023/05/18 10:46:01;;;;;;;5.15;2.03;;;17.70;99.90;;;;;;4970653;28;20049;-77
2023/05/18 10:48:28;;;;;;;3.80;1.88;;;17.90;99.90;;;;;;4971867;28;20049;-77
2023/05/18 10:50:56;;;;;;;3.97;1.58;;;17.90;99.90;;;;;;4974878;28;20073;-78
2023/05/18 10:53:28;;;;;;;3.30;1.75;;;17.90;99.90;;;;;;4994828;28;20063;-79
2023/05/18 10:55:54;;;;;;;4.00;2.10;;;17.80;99.90;;;;;;4996568;28;20125;-77
2023/05/18 10:58:22;;;;;;;6.53;2.13;;;18.10;99.90;;;;;;5064618;28;20141;-77
2023/05/18 11:01:00;;;;;;;6.63;1.92;;;17.50;99.90;;;;;;4995196;28;20038;-78
2023/05/18 11:03:27;;;;;;;2.83;1.67;;;18.20;99.90;;;;;;4994875;28;20048;-77
2023/05/18 11:06:26;;;;;;;4.38;2.10;;;17.40;99.90;;;;;;4992426;28;20541;-77
2023/05/18 11:08:51;;;;;;;3.58;1.77;;;17.10;99.90;;;;;;4999544;28;20081;-77
2023/05/18 11:11:23;;;;;;;4.15;1.70;;;17.40;99.90;;;;;;4992068;28;20083;-77
2023/05/18 11:13:50;;;;;;;4.13;1.80;;;17.80;99.90;;;;;;4998558;28;20123;-79
2023/05/18 11:16:17;;;;;;;7.18;2.25;;;17.70;99.90;;;;;;4974536;28;20659;-78
2023/05/18 11:18:43;;;;;;;5.55;2.22;;;17.60;99.90;;;;;;4993930;28;20049;-77
2023/05/18 11:21:23;;;;;;;6.03;1.98;;;17.80;99.90;;;;;;4993496;28;20042;-80
2023/05/18 11:24:16;;;;;;;3.88;1.80;;;17.70;99.90;;;;;;4994308;28;20106;-81
2023/05/18 11:27:06;;;;;;;4.38;2.20;;;17.90;99.90;;;;;;4967418;28;20042;-79
2023/05/18 11:29:39;;;;;;;4.50;1.80;;;18.20;99.90;;;;;;4973869;28;20059;-77
2023/05/18 11:32:25;;;;;;;4.90;1.90;;;18.40;99.90;;;;;;4985926;28;20041;-76
2023/05/18 11:34:52;;;;;;;5.50;1.85;;;18.20;99.90;;;;;;4961770;28;20038;-79
2023/05/18 11:37:38;;;;;;;4.90;1.98;;;18.20;99.90;;;;;;4977918;28;20110;-78
2023/05/18 11:40:08;;;;;;;4.38;2.03;;;18.50;99.90;;;;;;5012462;28;20102;-81
2023/05/18 11:42:34;;;;;;;6.72;2.33;;;18.60;99.90;;;;;;4992389;28;20046;-81
2023/05/18 11:45:11;;;;;;;3.38;1.90;;;18.60;99.90;;;;;;4972132;28;20083;-80
2023/05/18 11:47:41;;;;;;;7.03;2.70;;;18.90;99.90;;;;;;4991161;28;20046;-78
2023/05/18 11:50:11;;;;;;;5.05;2.20;;;19.30;99.90;;;;;;4996627;28;20065;-79
2023/05/18 11:52:47;;;;;;;5.85;2.28;;;19.40;99.90;;;;;;4993619;28;20086;-79
2023/05/18 11:55:16;;;;;;;7.10;2.00;;;19.30;99.90;;;;;;4975070;28;20539;-77
2023/05/18 11:57:46;;;;;;;6.13;2.15;;;19.10;99.90;;;;;;5017036;28;20163;-78
2023/05/18 12:00:12;;;;;;;5.47;2.30;;;18.60;99.90;;;;;;4990445;28;20042;-81
2023/05/18 12:02:41;;;;;;;4.80;2.40;;;18.60;99.90;;;;;;5057383;28;20065;-78
2023/05/18 12:05:10;;;;;;;3.85;2.00;;;18.00;99.90;;;;;;4993214;28;20034;-82
2023/05/18 12:07:37;;;;;;;8.05;2.35;;;18.10;99.90;;;;;;4989370;28;20074;-80
2023/05/18 12:10:08;;;;;;;4.60;2.40;;;17.90;99.90;;;;;;4990961;28;20050;-77
2023/05/18 12:12:34;;;;;;;5.13;1.85;;;17.60;99.90;;;;;;4991011;28;20053;-78
2023/05/18 12:15:08;;;;;;;5.03;2.10;;;17.30;99.90;;;;;;4989889;28;20034;-78
2023/05/18 12:17:50;;;;;;;6.17;2.20;;;17.30;99.90;;;;;;4974711;28;20033;-82
2023/05/18 12:20:17;;;;;;;5.95;2.00;;;17.30;99.90;;;;;;4970454;28;20316;-79
2023/05/18 12:22:45;;;;;;;5.03;2.15;;;17.60;99.90;;;;;;4990539;28;20132;-77
2023/05/18 12:25:11;;;;;;;6.50;2.55;;;17.50;99.90;;;;;;4990472;28;20053;-77
2023/05/18 12:27:39;;;;;;;5.43;2.22;;;17.20;99.90;;;;;;4973752;28;20053;-77
2023/05/18 12:30:08;;;;;;;5.65;2.22;;;17.60;99.90;;;;;;4989321;28;20096;-77
2023/05/18 12:32:34;;;;;;;5.65;1.88;;;17.40;99.90;;;;;;4990819;28;20042;-77
2023/05/18 12:34:59;;;;;;;5.53;2.35;;;18.10;99.90;;;;;;4957981;28;20508;-79
2023/05/18 12:37:25;;;;;;;4.95;2.45;;;17.40;99.90;;;;;;4989021;28;20090;-77
2023/05/18 12:39:52;;;;;;;4.72;2.83;;;17.60;99.90;;;;;;5005937;28;20049;-78
2023/05/18 12:42:18;;;;;;;5.50;2.38;;;17.90;99.90;;;;;;4969859;28;20144;-78
2023/05/18 12:44:49;;;;;;;5.45;2.35;;;17.80;99.90;;;;;;4988864;28;20074;-76
2023/05/18 12:47:15;;;;;;;4.53;2.45;;;18.00;99.90;;;;;;4975016;28;20074;-76
2023/05/18 12:49:47;;;;;;;5.35;2.15;;;18.00;99.90;;;;;;4990676;28;20046;-78
2023/05/18 12:52:16;;;;;;;7.07;2.05;;;18.40;99.90;;;;;;4968888;28;20039;-74